createdAt,value
2022-09-05T00:02:48.931Z,17.47
2022-09-05T00:05:33.834Z,17.50
2022-09-05T00:08:17.732Z,17.48
2022-09-05T00:11:40.030Z,17.45
2022-09-05T00:14:07.506Z,17.44
2022-09-05T00:16:40.013Z,17.40
2022-09-05T00:24:23.276Z,17.41
2022-09-05T00:24:30.904Z,17.40
2022-09-05T00:25:46.570Z,17.41
2022-09-05T00:28:31.446Z,17.36
2022-09-05T00:31:50.874Z,17.34
2022-09-05T00:34:22.005Z,17.34
2022-09-05T00:36:54.876Z,17.28
2022-09-05T00:39:37.955Z,17.26
2022-09-05T00:42:15.543Z,17.24
2022-09-05T00:44:54.094Z,17.24
2022-09-05T00:47:30.945Z,17.23
2022-09-05T00:50:03.900Z,17.21
2022-09-05T00:53:06.324Z,17.18
2022-09-05T00:55:46.714Z,17.18
2022-09-05T00:59:04.287Z,17.18
2022-09-05T01:01:39.067Z,17.14
2022-09-05T01:04:42.791Z,17.14
2022-09-05T01:07:29.776Z,17.08
2022-09-05T01:10:04.502Z,17.05
2022-09-05T01:13:06.326Z,17.02
2022-09-05T01:16:05.500Z,17.01
2022-09-05T01:18:41.389Z,16.99
2022-09-05T01:21:19.874Z,16.98
2022-09-05T01:23:50.565Z,16.99
2022-09-05T01:26:23.619Z,16.98
2022-09-05T01:29:18.364Z,16.89
2022-09-05T01:32:20.665Z,16.86
2022-09-05T01:34:58.349Z,16.85
2022-09-05T01:37:44.840Z,16.85
2022-09-05T01:40:28.725Z,16.80
2022-09-05T01:42:55.804Z,16.81
2022-09-05T01:45:45.540Z,16.80
2022-09-05T01:48:33.889Z,16.80
2022-09-05T01:51:29.463Z,16.79
2022-09-05T01:54:23.959Z,16.75
2022-09-05T01:56:54.153Z,16.71
2022-09-05T01:59:45.910Z,16.69
2022-09-05T02:02:42.010Z,16.67
2022-09-05T02:05:51.052Z,16.64
2022-09-05T02:08:51.710Z,16.61
2022-09-05T02:11:35.484Z,16.63
2022-09-05T02:14:27.046Z,16.58
2022-09-05T02:17:47.993Z,16.54
2022-09-05T02:20:28.664Z,16.53
2022-09-05T02:23:40.468Z,16.45
2022-09-05T02:26:03.456Z,16.45
2022-09-05T02:28:40.877Z,16.42
2022-09-05T02:31:25.174Z,16.41
2022-09-05T02:34:01.954Z,16.42
2022-09-05T02:36:45.662Z,16.42
2022-09-05T02:45:04.138Z,16.40
2022-09-05T02:45:20.772Z,16.38
2022-09-05T02:45:39.468Z,16.33
2022-09-05T02:48:33.353Z,16.32
2022-09-05T02:57:27.700Z,16.32
2022-09-05T02:57:39.467Z,16.32
2022-09-05T02:57:47.163Z,16.31
2022-09-05T03:00:11.356Z,16.28
2022-09-05T03:02:58.465Z,16.25
2022-09-05T03:05:31.539Z,16.24
2022-09-05T03:08:16.078Z,16.26
2022-09-05T03:10:53.961Z,16.23
2022-09-05T03:13:54.358Z,16.22
2022-09-05T03:16:58.897Z,16.22
2022-09-05T03:19:46.481Z,16.18
2022-09-05T03:22:16.504Z,16.15
2022-09-05T03:25:01.402Z,16.10
2022-09-05T03:28:05.149Z,16.04
2022-09-05T03:30:43.742Z,16.00
2022-09-05T03:33:22.910Z,16.03
2022-09-05T03:35:58.813Z,16.05
2022-09-05T03:39:16.506Z,16.11
2022-09-05T03:41:49.706Z,16.08
2022-09-05T03:44:37.642Z,16.06
2022-09-05T03:47:19.171Z,16.03
2022-09-05T03:53:18.015Z,16.00
2022-09-05T03:57:13.235Z,16.08
2022-09-05T03:57:26.494Z,16.02
2022-09-05T03:59:10.654Z,15.99
2022-09-05T04:04:37.913Z,15.98
2022-09-05T04:08:15.463Z,15.92
2022-09-05T04:08:17.615Z,15.93
2022-09-05T04:10:33.276Z,15.93
2022-09-05T04:13:03.530Z,15.91
2022-09-05T04:15:45.649Z,15.90
2022-09-05T04:18:18.353Z,15.91
2022-09-05T04:21:18.774Z,15.87
2022-09-05T04:24:00.478Z,15.85
2022-09-05T04:26:49.114Z,15.83
2022-09-05T04:29:35.566Z,15.78
2022-09-05T04:32:18.833Z,15.74
2022-09-05T04:35:15.434Z,15.77
2022-09-05T04:37:59.463Z,15.72
2022-09-05T04:40:51.171Z,15.70
2022-09-05T04:43:31.440Z,15.69
2022-09-05T04:46:18.761Z,15.73
2022-09-05T04:49:02.382Z,15.75
2022-09-05T04:51:47.458Z,15.75
2022-09-05T04:54:42.182Z,15.75
2022-09-05T04:57:13.872Z,15.69
2022-09-05T05:03:26.142Z,15.68
2022-09-05T05:06:11.749Z,15.68
2022-09-05T05:06:17.108Z,15.68
2022-09-05T05:08:40.993Z,15.69
2022-09-05T05:16:17.284Z,15.73
2022-09-05T05:18:11.320Z,15.81
2022-09-05T05:18:13.274Z,15.80
2022-09-05T05:20:41.941Z,15.79
2022-09-05T05:23:07.812Z,15.80
2022-09-05T05:25:45.533Z,15.88
2022-09-05T05:28:25.088Z,15.96
2022-09-05T05:30:53.967Z,15.97
2022-09-05T05:33:33.830Z,16.00
2022-09-05T05:36:02.130Z,16.03
2022-09-05T05:38:39.368Z,16.08
2022-09-05T05:41:18.596Z,16.14
2022-09-05T05:43:46.749Z,16.20
2022-09-05T05:46:16.759Z,16.31
2022-09-05T05:48:51.789Z,16.37
2022-09-05T05:51:34.649Z,16.48
2022-09-05T05:54:40.397Z,16.48
2022-09-05T05:57:19.003Z,16.53
2022-09-05T06:00:04.748Z,16.58
2022-09-05T06:03:26.457Z,16.64
2022-09-05T06:06:16.213Z,16.73
2022-09-05T06:12:40.136Z,16.88
2022-09-05T06:15:02.636Z,17.02
2022-09-05T06:15:34.233Z,17.18
2022-09-05T06:18:28.134Z,17.31
2022-09-05T06:22:09.227Z,17.42
2022-09-05T06:24:54.435Z,17.62
2022-09-05T06:28:01.627Z,17.70
2022-09-05T06:30:59.270Z,17.66
2022-09-05T06:34:06.910Z,17.67
2022-09-05T06:37:06.405Z,17.77
2022-09-05T06:39:43.781Z,17.91
2022-09-05T06:42:55.030Z,18.06
2022-09-05T06:45:40.288Z,18.21
2022-09-05T06:48:17.168Z,18.33
2022-09-05T06:51:14.658Z,18.50
2022-09-05T06:53:48.367Z,18.62
2022-09-05T06:56:25.471Z,18.75
2022-09-05T06:59:23.475Z,18.87
2022-09-05T07:02:01.646Z,18.97
2022-09-05T07:05:37.546Z,19.09
2022-09-05T07:08:13.619Z,19.22
2022-09-05T07:11:19.139Z,19.33
2022-09-05T07:13:56.780Z,19.46
2022-09-05T07:16:29.927Z,19.52
2022-09-05T07:19:15.865Z,19.59
2022-09-05T07:21:49.779Z,19.66
2022-09-05T07:24:28.165Z,19.77
2022-09-05T07:27:08.962Z,19.87
2022-09-05T07:30:00.716Z,19.98
2022-09-05T07:32:29.819Z,20.11
2022-09-05T07:34:57.651Z,20.25
2022-09-05T07:37:28.913Z,20.38
2022-09-05T07:40:04.060Z,20.49
2022-09-05T07:43:09.472Z,20.56
2022-09-05T07:45:55.387Z,20.64
2022-09-05T07:48:35.193Z,20.74
2022-09-05T07:53:43.605Z,20.86
2022-09-05T07:57:10.878Z,20.97
2022-09-05T07:59:53.265Z,21.18
2022-09-05T08:02:20.126Z,21.21
2022-09-05T08:04:46.963Z,21.21
2022-09-05T08:07:46.073Z,21.29
2022-09-05T08:10:10.253Z,21.39
2022-09-05T08:13:22.969Z,21.46
2022-09-05T08:16:09.960Z,21.54
2022-09-05T08:18:22.725Z,21.65
2022-09-05T08:20:58.871Z,21.76
2022-09-05T08:23:53.261Z,21.86
2022-09-05T08:26:48.658Z,21.98
2022-09-05T08:29:37.690Z,22.10
2022-09-05T08:32:35.874Z,22.21
2022-09-05T08:35:16.087Z,22.35
2022-09-05T08:37:44.396Z,22.49
2022-09-05T08:40:38.382Z,22.66
2022-09-05T08:46:36.633Z,22.76
2022-09-05T08:46:40.134Z,22.96
2022-09-05T08:49:46.336Z,23.21
2022-09-05T08:52:55.362Z,23.42
2022-09-05T08:55:46.964Z,23.50
2022-09-05T08:58:38.351Z,23.58
2022-09-05T09:01:08.016Z,23.70
2022-09-05T09:03:53.404Z,23.85
2022-09-05T09:06:38.914Z,24.03
2022-09-05T09:09:13.751Z,24.20
2022-09-05T09:12:04.110Z,24.52
2022-09-05T09:14:32.813Z,24.81
2022-09-05T09:17:35.138Z,25.00
2022-09-05T09:20:14.930Z,25.21
2022-09-05T09:23:32.172Z,25.48
2022-09-05T09:26:15.887Z,25.69
2022-09-05T09:29:02.469Z,25.88
2022-09-05T09:31:59.196Z,26.05
2022-09-05T09:34:47.356Z,26.06
2022-09-05T09:37:49.858Z,26.24
2022-09-05T09:40:30.067Z,26.37
2022-09-05T09:43:27.383Z,26.47
2022-09-05T09:46:18.298Z,26.31
2022-09-05T09:49:02.462Z,26.31
2022-09-05T09:51:34.838Z,26.14
2022-09-05T09:54:10.590Z,26.06
2022-09-05T09:57:11.216Z,26.23
2022-09-05T10:00:02.824Z,26.05
2022-09-05T10:05:27.482Z,26.10
2022-09-05T10:10:38.186Z,26.14
2022-09-05T10:10:54.222Z,26.11
2022-09-05T10:12:03.420Z,26.15
2022-09-05T10:14:50.682Z,26.22
2022-09-05T10:17:51.540Z,26.29
2022-09-05T10:20:29.800Z,26.35
2022-09-05T10:23:11.705Z,26.40
2022-09-05T10:26:05.878Z,26.39
2022-09-05T10:28:45.832Z,26.42
2022-09-05T10:33:45.497Z,26.39
2022-09-05T10:35:17.696Z,26.36
2022-09-05T10:37:15.185Z,26.35
2022-09-05T10:39:47.152Z,26.31
2022-09-05T10:42:50.167Z,26.32
2022-09-05T10:45:53.430Z,26.36
2022-09-05T10:48:31.016Z,26.35
2022-09-05T10:51:04.530Z,26.39
2022-09-05T10:53:49.469Z,26.48
2022-09-05T10:56:19.497Z,26.62
2022-09-05T11:01:34.771Z,26.81
2022-09-05T11:02:26.038Z,27.09
2022-09-05T11:04:50.451Z,27.25
2022-09-05T11:07:38.794Z,27.17
2022-09-05T11:10:12.274Z,26.97
2022-09-05T11:13:01.383Z,26.82
2022-09-05T11:15:44.100Z,26.76
2022-09-05T11:18:56.041Z,26.87
2022-09-05T11:22:22.032Z,27.28
2022-09-05T11:24:58.763Z,27.69
2022-09-05T11:27:40.219Z,27.84
2022-09-05T11:30:28.925Z,28.04
2022-09-05T11:39:48.425Z,28.45
2022-09-05T11:39:52.871Z,28.64
2022-09-05T11:40:31.265Z,28.55
2022-09-05T11:42:48.817Z,28.64
2022-09-05T11:45:24.822Z,28.74
2022-09-05T11:48:20.019Z,28.52
2022-09-05T11:51:15.610Z,28.47
2022-09-05T11:54:16.422Z,28.43
2022-09-05T11:57:32.033Z,28.39
2022-09-05T12:00:33.687Z,28.49
2022-09-05T12:04:00.286Z,28.53
2022-09-05T12:06:47.782Z,28.76
2022-09-05T12:09:23.819Z,29.02
2022-09-05T12:11:56.943Z,29.33
2022-09-05T12:14:54.921Z,29.46
2022-09-05T12:17:37.981Z,29.36
2022-09-05T12:20:21.929Z,29.28
2022-09-05T12:23:04.197Z,29.12
2022-09-05T12:27:41.007Z,29.06
2022-09-05T12:29:27.199Z,29.08
2022-09-05T12:33:32.775Z,28.86
2022-09-05T12:36:09.947Z,28.69
2022-09-05T12:40:45.118Z,28.49
2022-09-05T12:41:45.236Z,28.64
2022-09-05T12:44:42.556Z,28.79
2022-09-05T12:47:18.666Z,28.88
2022-09-05T12:50:15.309Z,28.64
2022-09-05T12:52:47.128Z,28.23
2022-09-05T12:55:34.152Z,27.98
2022-09-05T13:02:01.475Z,27.71
2022-09-05T13:03:09.851Z,27.55
2022-09-05T13:04:20.208Z,27.39
2022-09-05T13:06:57.313Z,27.31
2022-09-05T13:10:58.818Z,27.15
2022-09-05T13:14:52.473Z,27.04
2022-09-05T13:15:27.337Z,26.98
2022-09-05T13:18:12.029Z,26.72
2022-09-05T13:20:51.293Z,26.52
2022-09-05T13:23:35.730Z,26.46
2022-09-05T13:26:08.032Z,26.52
2022-09-05T13:28:56.674Z,26.59
2022-09-05T13:37:54.326Z,26.67
2022-09-05T13:37:58.803Z,26.75
2022-09-05T13:38:16.291Z,26.82
2022-09-05T13:40:19.603Z,26.94
2022-09-05T13:43:05.246Z,26.98
2022-09-05T13:45:35.129Z,27.01
2022-09-05T13:48:27.625Z,27.05
2022-09-05T13:51:00.048Z,26.91
2022-09-05T13:53:36.859Z,26.75
2022-09-05T13:56:25.203Z,26.68
2022-09-05T13:58:59.984Z,26.80
2022-09-05T14:01:54.624Z,26.97
2022-09-05T14:05:13.558Z,26.97
2022-09-05T14:08:03.678Z,27.10
2022-09-05T14:11:02.217Z,27.07
2022-09-05T14:13:56.340Z,27.02
2022-09-05T14:16:27.021Z,26.93
2022-09-05T14:19:13.228Z,26.77
2022-09-05T14:21:42.149Z,26.51
2022-09-05T14:24:27.949Z,26.34
2022-09-05T14:27:03.058Z,26.14
2022-09-05T14:29:39.085Z,25.96
2022-09-05T14:37:38.624Z,25.85
2022-09-05T14:37:38.870Z,25.77
2022-09-05T14:38:15.755Z,25.90
2022-09-05T14:41:30.323Z,26.31
2022-09-05T14:44:33.549Z,26.61
2022-09-05T14:47:06.387Z,26.67
2022-09-05T14:49:53.728Z,26.53
2022-09-05T14:52:29.415Z,26.46
2022-09-05T15:02:53.581Z,26.96
2022-09-05T15:02:58.504Z,26.70
2022-09-05T15:06:33.015Z,26.93
2022-09-05T15:12:14.346Z,27.05
2022-09-05T15:12:28.591Z,27.24
2022-09-05T15:14:37.363Z,27.30
2022-09-05T15:17:05.618Z,27.32
2022-09-05T15:20:08.106Z,27.47
2022-09-05T15:22:38.103Z,27.65
2022-09-05T15:25:17.253Z,27.85
2022-09-05T15:27:46.225Z,28.09
2022-09-05T15:30:35.652Z,29.47
2022-09-05T15:33:25.809Z,34.50
2022-09-05T15:35:53.423Z,40.26
2022-09-05T15:38:28.063Z,44.85
2022-09-05T15:41:02.396Z,47.94
2022-09-05T15:43:36.458Z,50.30
2022-09-05T15:46:07.255Z,51.41
2022-09-05T15:48:35.631Z,52.35
2022-09-05T15:51:17.312Z,52.71
2022-09-05T15:53:44.250Z,53.52
2022-09-05T15:56:10.883Z,54.27
2022-09-05T15:58:52.726Z,55.18
2022-09-05T16:01:58.501Z,56.08
2022-09-05T16:08:32.751Z,56.62
2022-09-05T16:10:33.562Z,56.52
2022-09-05T16:10:45.712Z,56.33
2022-09-05T16:12:56.076Z,56.16
2022-09-05T16:21:09.596Z,56.23
2022-09-05T16:23:16.852Z,55.69
2022-09-05T16:23:25.850Z,56.03
2022-09-05T16:24:24.903Z,56.14
2022-09-05T16:27:07.809Z,56.22
2022-09-05T16:29:46.344Z,55.96
2022-09-05T16:32:22.888Z,55.73
2022-09-05T16:35:00.500Z,55.24
2022-09-05T16:38:01.361Z,54.52
2022-09-05T16:40:38.777Z,54.18
2022-09-05T16:43:15.588Z,54.08
2022-09-05T16:46:07.837Z,54.25
2022-09-05T16:48:40.587Z,53.88
2022-09-05T16:51:35.014Z,53.48
2022-09-05T16:54:20.872Z,52.38
2022-09-05T16:56:55.327Z,48.57
2022-09-05T16:59:26.576Z,43.14
2022-09-05T17:02:07.494Z,38.84
2022-09-05T17:05:14.500Z,35.72
2022-09-05T17:08:18.775Z,33.45
2022-09-05T17:10:57.472Z,32.09
2022-09-05T17:13:52.690Z,30.94
2022-09-05T17:16:45.387Z,29.98
2022-09-05T17:19:22.100Z,29.18
2022-09-05T17:24:24.437Z,28.53
2022-09-05T17:29:31.266Z,27.84
2022-09-05T17:29:40.095Z,27.27
2022-09-05T17:31:49.000Z,26.65
2022-09-05T17:33:45.535Z,26.23
2022-09-05T17:36:15.898Z,25.97
2022-09-05T17:38:55.026Z,25.75
2022-09-05T17:41:55.842Z,25.48
2022-09-05T17:44:29.790Z,25.19
2022-09-05T17:47:15.164Z,24.92
2022-09-05T17:49:47.189Z,24.63
2022-09-05T17:52:16.415Z,24.47
2022-09-05T17:54:49.910Z,24.31
2022-09-05T17:57:29.190Z,24.17
2022-09-05T18:00:03.827Z,23.98
2022-09-05T18:02:56.660Z,23.82
2022-09-05T18:05:57.558Z,23.72
2022-09-05T18:08:44.870Z,23.60
2022-09-05T18:11:18.059Z,23.52
2022-09-05T18:14:01.104Z,23.50
2022-09-05T18:19:34.107Z,23.44
2022-09-05T18:22:08.642Z,23.41
2022-09-05T18:24:40.121Z,23.39
2022-09-05T18:28:04.488Z,23.35
2022-09-05T18:33:56.325Z,23.18
2022-09-05T18:35:54.328Z,23.13
2022-09-05T18:38:29.734Z,23.09
2022-09-05T18:41:13.739Z,23.03
2022-09-05T18:43:45.024Z,22.94
2022-09-05T18:46:32.833Z,22.88
2022-09-05T18:50:21.841Z,22.82
2022-09-05T18:52:04.706Z,22.80
2022-09-05T18:54:34.626Z,22.75
2022-09-05T18:57:26.939Z,22.68
2022-09-05T19:00:00.454Z,22.61
2022-09-05T19:02:59.092Z,22.52
2022-09-05T19:05:40.254Z,22.47
2022-09-05T19:08:26.750Z,22.41
2022-09-05T19:10:58.749Z,22.35
2022-09-05T19:13:37.530Z,22.29
2022-09-05T19:16:43.909Z,22.25
2022-09-05T19:19:10.678Z,22.21
2022-09-05T19:22:33.354Z,22.15
2022-09-05T19:24:49.027Z,22.11
2022-09-05T19:29:33.209Z,22.06
2022-09-05T19:36:53.486Z,22.04
2022-09-05T19:37:07.776Z,21.98
2022-09-05T19:37:22.229Z,21.81
2022-09-05T19:38:49.390Z,21.78
2022-09-05T19:47:34.630Z,21.76
2022-09-05T19:47:37.946Z,21.70
2022-09-05T19:47:44.061Z,21.65
2022-09-05T19:49:56.913Z,21.58
2022-09-05T19:52:23.718Z,21.61
2022-09-05T19:54:51.450Z,21.63
2022-09-05T19:57:20.250Z,21.62
2022-09-05T19:59:53.090Z,21.61
2022-09-05T20:02:25.314Z,21.61
2022-09-05T20:04:54.955Z,21.61
2022-09-05T20:07:26.588Z,21.60
2022-09-05T20:09:54.882Z,21.56
2022-09-05T20:12:38.178Z,21.48
2022-09-05T20:15:34.659Z,21.45
2022-09-05T20:18:42.931Z,21.45
2022-09-05T20:21:22.907Z,21.41
2022-09-05T20:23:51.626Z,21.37
2022-09-05T20:26:21.413Z,21.33
2022-09-05T20:28:54.010Z,21.32
2022-09-05T20:31:27.106Z,21.30
2022-09-05T20:35:09.180Z,21.27
2022-09-05T20:43:15.201Z,21.24
2022-09-05T20:43:18.456Z,21.24
2022-09-05T20:43:18.586Z,21.27
2022-09-05T20:45:45.444Z,21.22
2022-09-05T20:54:07.983Z,21.20
2022-09-05T20:54:19.417Z,21.15
2022-09-05T20:54:24.832Z,21.10
2022-09-05T20:56:48.255Z,21.08
2022-09-05T20:59:37.365Z,21.07
2022-09-05T21:02:06.751Z,21.01
2022-09-05T21:04:35.855Z,20.99
2022-09-05T21:07:19.486Z,21.04
2022-09-05T21:09:49.913Z,21.04
2022-09-05T21:12:27.678Z,21.10
2022-09-05T21:15:30.659Z,21.12
2022-09-05T21:18:05.667Z,21.16
2022-09-05T21:20:32.629Z,21.18
2022-09-05T21:22:59.310Z,21.17
2022-09-05T21:25:44.118Z,21.14
2022-09-05T21:28:24.360Z,21.11
2022-09-05T21:31:08.841Z,21.08
2022-09-05T21:33:45.295Z,21.05
2022-09-05T21:36:15.197Z,21.02
2022-09-05T21:38:42.844Z,21.02
2022-09-05T21:41:10.695Z,21.03
2022-09-05T21:47:33.622Z,20.99
2022-09-05T21:47:40.488Z,20.97
2022-09-05T21:49:18.363Z,20.91
2022-09-05T21:51:48.221Z,20.87
2022-09-05T21:59:22.192Z,20.84
2022-09-05T21:59:26.995Z,20.83
2022-09-05T21:59:57.761Z,20.82
2022-09-05T22:02:32.544Z,20.79
2022-09-05T22:05:03.815Z,20.77
2022-09-05T22:07:34.491Z,20.74
2022-09-05T22:10:04.153Z,20.77
2022-09-05T22:12:33.557Z,20.77
2022-09-05T22:15:10.104Z,20.74
2022-09-05T22:17:49.218Z,20.77
2022-09-05T22:20:17.481Z,20.82
2022-09-05T22:22:45.246Z,20.85
2022-09-05T22:25:28.723Z,20.87
2022-09-05T22:28:06.242Z,20.91
2022-09-05T22:30:36.702Z,20.94
2022-09-05T22:33:05.472Z,21.00
2022-09-05T22:35:34.344Z,20.97
2022-09-05T22:38:03.525Z,20.91
2022-09-05T22:40:32.412Z,20.88
2022-09-05T22:43:01.735Z,20.88
2022-09-05T22:45:29.786Z,20.92
2022-09-05T22:47:57.227Z,20.92
2022-09-05T22:50:24.578Z,20.90
2022-09-05T22:52:51.282Z,20.92
2022-09-05T22:55:18.392Z,20.93
2022-09-05T22:57:45.075Z,20.92
2022-09-05T23:00:12.087Z,20.90
2022-09-05T23:02:38.759Z,20.91
2022-09-05T23:05:06.437Z,20.92
2022-09-05T23:07:33.162Z,20.92
2022-09-05T23:09:59.912Z,20.86
2022-09-05T23:12:26.958Z,20.86
2022-09-05T23:14:53.805Z,20.86
2022-09-05T23:17:20.477Z,20.87
2022-09-05T23:19:47.249Z,20.89
2022-09-05T23:22:13.921Z,20.93
2022-09-05T23:24:40.635Z,20.97
2022-09-05T23:27:07.332Z,20.98
2022-09-05T23:29:34.133Z,20.96
2022-09-05T23:32:00.827Z,20.82
2022-09-05T23:34:27.560Z,20.59
2022-09-05T23:36:56.390Z,20.59
2022-09-05T23:39:23.323Z,20.57
2022-09-05T23:41:50.067Z,20.40
2022-09-05T23:44:16.803Z,20.43
2022-09-05T23:46:44.196Z,20.52
2022-09-05T23:49:11.005Z,20.59
2022-09-05T23:51:37.634Z,20.51
2022-09-05T23:54:04.405Z,20.53
2022-09-05T23:56:31.106Z,20.65
2022-09-05T23:58:57.802Z,20.71
